| time (UTC) | temp C | wind direction | speed KPH | gust KPH | rain 1hr cm | rain 24hr cm | rain mn cm | humidity % | barometer mb |
| 20260507140103 | 13 | 346 | 0.0 | 4.8 | 0.00 | 0.20 | 0.03 | 65 | 1011.5 |
| 20260507134548 | 13 | 44 | 0.0 | 14.5 | 0.00 | 0.23 | 0.03 | 65 | 1011.4 |
| 20260507133047 | 13 | 330 | 0.0 | 6.4 | 0.00 | 0.23 | 0.03 | 66 | 1011.2 |
| 20260507131548 | 13 | 312 | 0.0 | 6.4 | 0.00 | 0.23 | 0.03 | 69 | 1011.2 |
| 20260507130044 | 13 | 316 | 1.6 | 6.4 | 0.00 | 0.23 | 0.03 | 71 | 1011.1 |
| 20260507124542 | 13 | 271 | 0.0 | 4.8 | 0.00 | 0.23 | 0.03 | 72 | 1011.2 |
| 20260507123040 | 12 | 322 | 4.8 | 14.5 | 0.00 | 0.23 | 0.03 | 75 | 1010.8 |
| 20260507121537 | 12 | 265 | 0.0 | 6.4 | 0.00 | 0.23 | 0.03 | 78 | 1010.8 |
| 20260507120036 | 12 | 329 | 0.0 | 4.8 | 0.00 | 0.23 | 0.03 | 79 | 1010.4 |
| 20260507114535 | 12 | 331 | 0.0 | 4.8 | 0.00 | 0.23 | 0.03 | 80 | 1010.8 |
| 20260507113036 | 12 | 331 | 0.0 | 3.2 | 0.00 | 0.23 | 0.03 | 81 | 1010.6 |
| 20260507111533 | 12 | 331 | 0.0 | 8.0 | 0.00 | 0.23 | 0.03 | 81 | 1010.5 |
| 20260507110031 | 12 | 339 | 0.0 | 6.4 | 0.00 | 0.23 | 0.03 | 82 | 1010.7 |
| 20260507104528 | 12 | 339 | 0.0 | 1.6 | 0.00 | 0.23 | 0.03 | 82 | 1010.5 |
| 20260507103025 | 12 | 336 | 0.0 | 3.2 | 0.00 | 0.23 | 0.03 | 83 | 1010.1 |
| 20260507101537 | 12 | 336 | 0.0 | 4.8 | 0.00 | 0.23 | 0.03 | 83 | 1010.0 |
| 20260507100030 | 12 | 336 | 0.0 | 1.6 | 0.00 | 0.23 | 0.03 | 84 | 1010.0 |
| 20260507094522 | 12 | 336 | 0.0 | 9.7 | 0.00 | 0.23 | 0.03 | 85 | 1010.2 |
| 20260507093027 | 12 | 339 | 0.0 | 4.8 | 0.00 | 0.23 | 0.03 | 86 | 1009.9 |
| 20260507091546 | 12 | 339 | 0.0 | 4.8 | 0.00 | 0.23 | 0.03 | 86 | 1010.3 |
| 20260507090020 | 12 | 339 | 0.0 | 8.0 | 0.00 | 0.23 | 0.03 | 86 | 1009.8 |
| 20260507084517 | 12 | 339 | 0.0 | 6.4 | 0.00 | 0.23 | 0.03 | 87 | 1009.6 |
| 20260507083020 | 13 | 337 | 0.0 | 1.6 | 0.00 | 0.23 | 0.03 | 87 | 1009.7 |
| 20260507081518 | 13 | 336 | 0.0 | 1.6 | 0.00 | 0.23 | 0.03 | 87 | 1010.1 |
| 20260507080016 | 13 | 336 | 0.0 | 4.8 | 0.00 | 0.23 | 0.03 | 86 | 1009.7 |
| 20260507074513 | 13 | 336 | 0.0 | 4.8 | 0.00 | 0.23 | 0.03 | 86 | 1009.2 |
| 20260507073013 | 13 | 338 | 0.0 | 6.4 | 0.00 | 0.23 | 0.03 | 86 | 1009.1 |
| 20260507071512 | 13 | 342 | 0.0 | 1.6 | 0.00 | 0.23 | 0.03 | 86 | 1009.2 |
| 20260507070140 | 13 | 342 | 0.0 | 6.4 | 0.03 | 0.23 | 0.03 | 86 | 1009.2 |
| 20260507064513 | 13 | 343 | 0.0 | 19.3 | 0.03 | 0.23 | 0.03 | 86 | 1009.0 |
| 20260507063007 | 14 | 351 | 0.0 | 14.5 | 0.03 | 0.23 | 0.03 | 86 | 1009.2 |
| 20260507061513 | 14 | 298 | 0.0 | 8.0 | 0.03 | 0.23 | 0.03 | 86 | 1009.2 |
| 20260507060003 | 15 | 262 | 0.0 | 4.8 | 0.00 | 0.20 | 0.00 | 86 | 1008.1 |
| 20260507054500 | 15 | 261 | 0.0 | 4.8 | 0.03 | 0.20 | 0.00 | 85 | 1007.5 |
| 20260507053058 | 16 | 259 | 0.0 | 6.4 | 0.03 | 0.20 | 0.00 | 84 | 1008.0 |
| 20260507051555 | 16 | 326 | 0.0 | 8.0 | 0.05 | 0.20 | 0.00 | 84 | 1008.8 |
| 20260507050052 | 16 | 349 | 0.0 | 1.6 | 0.05 | 0.20 | 0.00 | 83 | 1009.1 |
| 20260507044550 | 17 | 360 | 0.0 | 0.0 | 0.03 | 0.18 | 0.18 | 83 | 1008.5 |
| 20260507043049 | 18 | 63 | 3.2 | 12.9 | 0.03 | 0.18 | 0.18 | 84 | 1008.8 |
| 20260507041550 | 18 | 161 | 0.0 | 0.0 | 0.00 | 0.15 | 0.15 | 83 | 1008.1 |
| 20260507040051 | 18 | 161 | 0.0 | 0.0 | 0.00 | 0.15 | 0.15 | 83 | 1008.2 |
| 20260507034549 | 18 | 161 | 0.0 | 0.0 | 0.00 | 0.15 | 0.15 | 83 | 1008.0 |
| 20260507033047 | 18 | 161 | 0.0 | 0.0 | 0.00 | 0.15 | 0.15 | 82 | 1007.8 |
| 20260507031546 | 18 | 161 | 0.0 | 0.0 | 0.00 | 0.15 | 0.15 | 82 | 1007.8 |
| 20260507030050 | 18 | 161 | 0.0 | 0.0 | 0.00 | 0.15 | 0.15 | 82 | 1008.1 |
| 20260507024546 | 18 | 161 | 0.0 | 0.0 | 0.00 | 0.15 | 0.15 | 81 | 1007.8 |
| 20260507023045 | 18 | 161 | 0.0 | 0.0 | 0.00 | 0.15 | 0.15 | 81 | 1007.4 |
| 20260507021550 | 18 | 161 | 0.0 | 0.0 | 0.00 | 0.15 | 0.15 | 80 | 1007.1 |
| 20260507020051 | 18 | 161 | 0.0 | 0.0 | 0.00 | 0.15 | 0.15 | 79 | 1007.7 |
| 20260507014557 | 18 | 161 | 0.0 | 0.0 | 0.00 | 0.15 | 0.15 | 79 | 1007.6 |
| 20260507013043 | 18 | 161 | 0.0 | 0.0 | 0.00 | 0.15 | 0.15 | 78 | 1007.8 |
| 20260507011543 | 19 | 161 | 0.0 | 0.0 | 0.00 | 0.15 | 0.15 | 78 | 1007.8 |
| 20260507010050 | 19 | 161 | 0.0 | 0.0 | 0.00 | 0.15 | 0.15 | 78 | 1007.2 |
| 20260507004543 | 19 | 161 | 0.0 | 0.0 | 0.00 | 0.15 | 0.15 | 77 | 1007.3 |
| 20260507003041 | 19 | 161 | 0.0 | 1.6 | 0.00 | 0.15 | 0.15 | 77 | 1007.1 |
| 20260507001540 | 20 | 161 | 0.0 | 4.8 | 0.00 | 0.15 | 0.15 | 76 | 1007.1 |
| 20260507000043 | 20 | 161 | 0.0 | 1.6 | 0.00 | 0.15 | 0.15 | 76 | 1007.1 |
| 20260506234540 | 20 | 161 | 0.0 | 3.2 | 0.00 | 0.15 | 0.15 | 75 | 1006.9 |
| 20260506233039 | 20 | 161 | 0.0 | 9.7 | 0.00 | 0.15 | 0.15 | 75 | 1006.6 |
| 20260506231538 | 20 | 161 | 0.0 | 8.0 | 0.00 | 0.15 | 0.15 | 74 | 1006.6 |
| 20260506230037 | 20 | 162 | 0.0 | 8.0 | 0.00 | 0.15 | 0.15 | 73 | 1006.7 |
| 20260506224538 | 21 | 159 | 0.0 | 8.0 | 0.00 | 0.15 | 0.15 | 72 | 1006.8 |
| 20260506223037 | 21 | 159 | 0.0 | 9.7 | 0.00 | 0.15 | 0.15 | 71 | 1006.7 |
| 20260506221536 | 21 | 165 | 0.0 | 8.0 | 0.00 | 0.15 | 0.15 | 71 | 1006.9 |
| 20260506220038 | 21 | 164 | 0.0 | 9.7 | 0.00 | 0.15 | 0.15 | 71 | 1006.8 |
| 20260506214535 | 21 | 159 | 0.0 | 17.7 | 0.00 | 0.15 | 0.15 | 70 | 1006.6 |
| 20260506213034 | 21 | 157 | 0.0 | 11.3 | 0.00 | 0.15 | 0.15 | 71 | 1006.9 |
| 20260506211533 | 21 | 169 | 0.0 | 14.5 | 0.00 | 0.15 | 0.15 | 71 | 1006.6 |
| 20260506210033 | 20 | 166 | 1.6 | 11.3 | 0.00 | 0.15 | 0.15 | 72 | 1006.7 |
| 20260506204531 | 20 | 159 | 0.0 | 4.8 | 0.00 | 0.15 | 0.15 | 72 | 1006.5 |
| 20260506203029 | 20 | 162 | 1.6 | 14.5 | 0.00 | 0.15 | 0.15 | 73 | 1006.5 |
| 20260506201541 | 20 | 168 | 6.4 | 16.1 | 0.00 | 0.15 | 0.15 | 74 | 1006.7 |
| 20260506200029 | 19 | 153 | 0.0 | 9.7 | 0.00 | 0.15 | 0.15 | 76 | 1006.6 |
| 20260506194529 | 18 | 160 | 1.6 | 11.3 | 0.00 | 0.15 | 0.15 | 77 | 1006.8 |
| 20260506193026 | 18 | 153 | 3.2 | 19.3 | 0.00 | 0.15 | 0.15 | 78 | 1007.0 |
| 20260506191522 | 18 | 167 | 3.2 | 12.9 | 0.00 | 0.15 | 0.15 | 79 | 1007.3 |
| 20260506190020 | 18 | 161 | 0.0 | 12.9 | 0.00 | 0.15 | 0.15 | 79 | 1007.7 |
| 20260506184520 | 18 | 175 | 1.6 | 17.7 | 0.00 | 0.15 | 0.15 | 79 | 1008.0 |
| 20260506183019 | 18 | 155 | 0.0 | 12.9 | 0.00 | 0.15 | 0.15 | 79 | 1007.7 |
| 20260506181518 | 18 | 161 | 0.0 | 12.9 | 0.00 | 0.15 | 0.15 | 81 | 1008.0 |
| 20260506180018 | 18 | 160 | 0.0 | 14.5 | 0.00 | 0.15 | 0.15 | 81 | 1008.0 |
| 20260506174516 | 18 | 155 | 0.0 | 9.7 | 0.00 | 0.15 | 0.15 | 82 | 1008.1 |
| 20260506173015 | 17 | 153 | 3.2 | 24.1 | 0.00 | 0.15 | 0.15 | 84 | 1008.1 |
| 20260506171516 | 17 | 149 | 0.0 | 4.8 | 0.00 | 0.15 | 0.15 | 86 | 1008.2 |
| 20260506170015 | 17 | 155 | 0.0 | 9.7 | 0.00 | 0.15 | 0.15 | 87 | 1008.1 |
| 20260506164512 | 17 | 157 | 0.0 | 16.1 | 0.00 | 0.15 | 0.15 | 88 | 1008.4 |
| 20260506163017 | 16 | 175 | 1.6 | 12.9 | 0.00 | 0.15 | 0.15 | 89 | 1008.5 |
| 20260506161510 | 16 | 158 | 0.0 | 14.5 | 0.00 | 0.15 | 0.15 | 89 | 1009.0 |
| 20260506160012 | 16 | 159 | 0.0 | 8.0 | 0.00 | 0.15 | 0.15 | 89 | 1008.7 |
| 20260506154506 | 16 | 163 | 0.0 | 8.0 | 0.03 | 0.15 | 0.15 | 89 | 1008.8 |
| 20260506153003 | 16 | 161 | 3.2 | 17.7 | 0.05 | 0.15 | 0.15 | 89 | 1008.7 |
| 20260506151501 | 16 | 164 | 1.6 | 9.7 | 0.13 | 0.15 | 0.15 | 88 | 1008.7 |
| 20260506144600 | 16 | 161 | 4.8 | 16.1 | 0.10 | 0.13 | 0.13 | 86 | 1009.1 |
| 20260506143056 | 16 | 160 | 1.6 | 16.1 | 0.08 | 0.10 | 0.10 | 85 | 1009.4 |
| 20260506141557 | 16 | 160 | 0.0 | 8.0 | 0.05 | 0.05 | 0.05 | 83 | 1009.4 |